createdAt,value
2022-10-18T00:05:13.961Z,100
2022-10-18T00:15:14.902Z,100
2022-10-18T00:25:15.460Z,100
2022-10-18T00:35:15.804Z,100
2022-10-18T00:45:16.169Z,100
2022-10-18T00:55:17.050Z,100
2022-10-18T01:05:17.591Z,100
2022-10-18T01:15:17.769Z,100
2022-10-18T01:25:17.883Z,100
2022-10-18T01:45:19.185Z,100
2022-10-18T01:55:19.444Z,100
2022-10-18T02:05:20.307Z,100
2022-10-18T02:15:21.267Z,100
2022-10-18T02:25:21.656Z,100
2022-10-18T02:35:21.835Z,100
2022-10-18T02:45:21.923Z,100
2022-10-18T02:55:22.135Z,100
2022-10-18T03:05:22.864Z,100
2022-10-18T03:15:23.252Z,100
2022-10-18T03:25:23.330Z,100
2022-10-18T03:35:24.134Z,100
2022-10-18T03:45:27.465Z,100
2022-10-18T04:05:24.666Z,100
2022-10-18T04:25:26.016Z,100
2022-10-18T04:35:26.692Z,100
2022-10-18T04:45:27.231Z,100
2022-10-18T04:55:28.239Z,100
2022-10-18T05:05:43.393Z,100
2022-10-18T05:15:29.071Z,100
2022-10-18T05:25:29.711Z,100
2022-10-18T05:35:30.543Z,100
2022-10-18T05:45:31.217Z,100
2022-10-18T05:55:31.461Z,100
2022-10-18T06:05:32.238Z,100
2022-10-18T06:15:32.642Z,100
2022-10-18T06:25:32.983Z,100
2022-10-18T06:35:33.612Z,100
2022-10-18T06:45:34.436Z,100
2022-10-18T06:55:35.207Z,100
2022-10-18T07:05:36.027Z,100
2022-10-18T07:15:36.119Z,100
2022-10-18T07:25:36.458Z,100
2022-10-18T07:35:36.807Z,100
2022-10-18T07:55:37.609Z,100
2022-10-18T08:05:37.886Z,100
2022-10-18T08:25:39.300Z,100
2022-10-18T08:35:39.606Z,100
2022-10-18T08:45:42.884Z,100
2022-10-18T08:55:41.035Z,100
2022-10-18T09:05:41.908Z,100
2022-10-18T09:15:42.738Z,100
2022-10-18T09:25:43.387Z,100
2022-10-18T09:35:44.164Z,100
2022-10-18T09:45:44.928Z,100
2022-10-18T09:55:45.136Z,100
2022-10-18T10:05:45.583Z,98
2022-10-18T10:15:45.860Z,97
2022-10-18T10:25:46.440Z,91
2022-10-18T10:35:53.325Z,92
2022-10-18T10:45:47.571Z,94
2022-10-18T10:55:48.348Z,91
2022-10-18T11:05:49.282Z,94
2022-10-18T11:15:49.857Z,90
2022-10-18T11:25:49.924Z,91
2022-10-18T11:35:50.194Z,89
2022-10-18T11:45:50.263Z,89
2022-10-18T11:55:50.338Z,87
2022-10-18T12:05:50.951Z,85
2022-10-18T12:25:52.162Z,81
2022-10-18T12:35:52.751Z,81
2022-10-18T12:45:53.065Z,79
2022-10-18T12:55:53.187Z,75
2022-10-18T13:05:55.507Z,76
2022-10-18T13:15:54.196Z,70
2022-10-18T13:25:55.009Z,74
2022-10-18T13:35:55.638Z,76
2022-10-18T13:45:56.342Z,74
2022-10-18T13:55:56.887Z,74
2022-10-18T14:05:57.472Z,73
2022-10-18T14:25:58.712Z,72
2022-10-18T14:35:59.212Z,70
2022-10-18T14:45:59.783Z,73
2022-10-18T14:56:00.357Z,71
2022-10-18T15:06:00.595Z,73
2022-10-18T15:16:00.688Z,72
2022-10-18T15:26:01.668Z,74
2022-10-18T15:36:01.739Z,75
2022-10-18T15:46:05.017Z,76
2022-10-18T15:56:02.835Z,77
2022-10-18T16:06:03.147Z,79
2022-10-18T16:26:04.319Z,83
2022-10-18T16:36:04.797Z,85
2022-10-18T16:46:05.048Z,87
2022-10-18T16:56:06.417Z,89
2022-10-18T17:06:06.425Z,90
2022-10-18T17:16:06.623Z,90
2022-10-18T17:26:15.144Z,90
2022-10-18T17:36:07.789Z,90
2022-10-18T17:46:08.380Z,91
2022-10-18T17:56:08.813Z,92
2022-10-18T18:06:09.783Z,93
2022-10-18T18:16:09.846Z,94
2022-10-18T18:26:10.615Z,94
2022-10-18T18:36:10.763Z,94
2022-10-18T18:56:11.893Z,96
2022-10-18T19:06:12.831Z,97
2022-10-18T19:16:12.945Z,98
2022-10-18T19:36:14.689Z,100
2022-10-18T19:46:15.134Z,100
2022-10-18T19:56:15.615Z,99
2022-10-18T20:06:16.439Z,99
2022-10-18T20:16:16.663Z,98
2022-10-18T20:26:18.044Z,99
2022-10-18T20:36:17.556Z,99
2022-10-18T20:56:18.593Z,100
2022-10-18T21:06:19.080Z,100
2022-10-18T21:16:19.454Z,100
2022-10-18T21:26:19.782Z,100
2022-10-18T21:36:19.964Z,100
2022-10-18T21:46:20.699Z,100
2022-10-18T21:56:21.326Z,100
2022-10-18T22:06:21.852Z,100
2022-10-18T22:16:22.417Z,100
2022-10-18T22:26:23.163Z,100
2022-10-18T22:36:23.551Z,100
2022-10-18T22:46:24.095Z,100
2022-10-18T22:56:24.275Z,100
2022-10-18T23:06:24.572Z,100
2022-10-18T23:16:25.315Z,100
2022-10-18T23:36:26.425Z,100
2022-10-18T23:46:26.604Z,100
2022-10-18T23:56:26.900Z,100
